sensor_id;sensor_type;location;lat;lon;timestamp;pressure;altitude;pressure_sealevel;temperature;humidity
57574;BME280;68988;49.000;21.242;2023-07-09T00:00:50;99056.94;;;27.58;36.34
57574;BME280;68988;49.000;21.242;2023-07-09T00:03:17;99061.28;;;27.54;36.23
57574;BME280;68988;49.000;21.242;2023-07-09T00:05:45;99059.97;;;27.51;36.24
57574;BME280;68988;49.000;21.242;2023-07-09T00:08:38;99059.13;;;27.56;36.20
57574;BME280;68988;49.000;21.242;2023-07-09T00:11:06;99058.63;;;27.49;35.93
57574;BME280;68988;49.000;21.242;2023-07-09T00:13:32;99061.56;;;27.52;35.95
57574;BME280;68988;49.000;21.242;2023-07-09T00:15:59;99050.22;;;27.56;36.02
57574;BME280;68988;49.000;21.242;2023-07-09T00:18:25;99055.38;;;27.52;36.15
57574;BME280;68988;49.000;21.242;2023-07-09T00:20:51;99049.47;;;27.50;35.91
57574;BME280;68988;49.000;21.242;2023-07-09T00:23:17;99057.28;;;27.51;36.27
57574;BME280;68988;49.000;21.242;2023-07-09T00:25:45;99063.47;;;27.52;35.88
57574;BME280;68988;49.000;21.242;2023-07-09T00:28:17;99059.41;;;27.55;36.21
57574;BME280;68988;49.000;21.242;2023-07-09T00:30:47;99058.34;;;27.50;36.28
57574;BME280;68988;49.000;21.242;2023-07-09T00:33:14;99056.50;;;27.46;36.15
57574;BME280;68988;49.000;21.242;2023-07-09T00:35:43;99058.59;;;27.54;35.92
57574;BME280;68988;49.000;21.242;2023-07-09T00:38:19;99054.88;;;27.50;35.94
57574;BME280;68988;49.000;21.242;2023-07-09T00:43:24;99058.13;;;27.47;35.74
57574;BME280;68988;49.000;21.242;2023-07-09T00:48:45;99044.88;;;27.50;35.90
57574;BME280;68988;49.000;21.242;2023-07-09T00:51:14;99054.88;;;27.45;35.85
57574;BME280;68988;49.000;21.242;2023-07-09T00:53:43;99048.13;;;27.47;35.97
57574;BME280;68988;49.000;21.242;2023-07-09T00:56:16;99053.28;;;27.44;36.07
57574;BME280;68988;49.000;21.242;2023-07-09T00:58:45;99058.13;;;27.42;35.70
57574;BME280;68988;49.000;21.242;2023-07-09T01:01:16;99050.63;;;27.39;35.83
57574;BME280;68988;49.000;21.242;2023-07-09T01:03:49;99048.69;;;27.44;35.94
57574;BME280;68988;49.000;21.242;2023-07-09T01:06:23;99057.06;;;27.43;36.17
57574;BME280;68988;49.000;21.242;2023-07-09T01:08:51;99054.66;;;27.41;36.01
57574;BME280;68988;49.000;21.242;2023-07-09T01:11:21;99053.84;;;27.41;35.67
57574;BME280;68988;49.000;21.242;2023-07-09T01:14:01;99049.25;;;27.41;35.93
57574;BME280;68988;49.000;21.242;2023-07-09T01:16:30;99054.41;;;27.38;35.72
57574;BME280;68988;49.000;21.242;2023-07-09T01:18:56;99059.25;;;27.41;36.16
57574;BME280;68988;49.000;21.242;2023-07-09T01:21:22;99056.53;;;27.41;35.73
57574;BME280;68988;49.000;21.242;2023-07-09T01:23:49;99055.50;;;27.37;35.94
57574;BME280;68988;49.000;21.242;2023-07-09T01:26:18;99046.06;;;27.34;36.01
57574;BME280;68988;49.000;21.242;2023-07-09T01:28:44;99054.94;;;27.40;36.16
57574;BME280;68988;49.000;21.242;2023-07-09T01:31:11;99058.47;;;27.35;36.07
57574;BME280;68988;49.000;21.242;2023-07-09T01:33:39;99052.84;;;27.31;35.83
57574;BME280;68988;49.000;21.242;2023-07-09T01:36:07;99046.63;;;27.36;35.83
57574;BME280;68988;49.000;21.242;2023-07-09T01:38:33;99055.78;;;27.35;35.78
57574;BME280;68988;49.000;21.242;2023-07-09T01:41:00;99058.47;;;27.35;35.96
57574;BME280;68988;49.000;21.242;2023-07-09T01:43:25;99052.19;;;27.45;36.02
57574;BME280;68988;49.000;21.242;2023-07-09T01:45:51;99051.75;;;27.32;35.72
57574;BME280;68988;49.000;21.242;2023-07-09T01:48:18;99052.78;;;27.37;36.02
57574;BME280;68988;49.000;21.242;2023-07-09T01:50:46;99055.53;;;27.31;35.79
57574;BME280;68988;49.000;21.242;2023-07-09T01:53:15;99050.94;;;27.32;36.04
57574;BME280;68988;49.000;21.242;2023-07-09T01:55:41;99054.97;;;27.35;36.00
57574;BME280;68988;49.000;21.242;2023-07-09T01:58:07;99056.56;;;27.36;35.80
57574;BME280;68988;49.000;21.242;2023-07-09T02:00:34;99054.41;;;27.38;35.94
57574;BME280;68988;49.000;21.242;2023-07-09T02:03:04;99056.56;;;27.36;35.55
57574;BME280;68988;49.000;21.242;2023-07-09T02:05:33;99058.75;;;27.33;35.65
57574;BME280;68988;49.000;21.242;2023-07-09T02:07:59;99058.19;;;27.37;35.94
57574;BME280;68988;49.000;21.242;2023-07-09T02:10:25;99051.19;;;27.36;35.65
57574;BME280;68988;49.000;21.242;2023-07-09T02:12:50;99060.34;;;27.35;35.71
57574;BME280;68988;49.000;21.242;2023-07-09T02:15:16;99050.69;;;27.28;35.73
57574;BME280;68988;49.000;21.242;2023-07-09T02:17:42;99056.63;;;27.25;35.86
57574;BME280;68988;49.000;21.242;2023-07-09T02:20:08;99059.31;;;27.25;36.09
57574;BME280;68988;49.000;21.242;2023-07-09T02:22:36;99059.81;;;27.27;35.50
57574;BME280;68988;49.000;21.242;2023-07-09T02:25:03;99068.19;;;27.26;35.71
57574;BME280;68988;49.000;21.242;2023-07-09T02:27:28;99057.38;;;27.31;35.75
57574;BME280;68988;49.000;21.242;2023-07-09T02:29:54;99058.75;;;27.28;35.62
57574;BME280;68988;49.000;21.242;2023-07-09T02:32:24;99062.00;;;27.25;36.07
57574;BME280;68988;49.000;21.242;2023-07-09T02:34:51;99062.00;;;27.25;35.90
57574;BME280;68988;49.000;21.242;2023-07-09T02:37:23;99059.28;;;27.30;35.56
57574;BME280;68988;49.000;21.242;2023-07-09T02:39:49;99066.28;;;27.26;35.56
57574;BME280;68988;49.000;21.242;2023-07-09T02:42:16;99063.06;;;27.24;35.71
57574;BME280;68988;49.000;21.242;2023-07-09T02:44:43;99070.03;;;27.30;35.58
57574;BME280;68988;49.000;21.242;2023-07-09T02:47:09;99065.22;;;27.27;35.38
57574;BME280;68988;49.000;21.242;2023-07-09T02:49:35;99072.50;;;27.22;35.76
57574;BME280;68988;49.000;21.242;2023-07-09T02:52:00;99065.25;;;27.22;35.44
57574;BME280;68988;49.000;21.242;2023-07-09T02:54:26;99064.94;;;27.29;35.60
57574;BME280;68988;49.000;21.242;2023-07-09T02:56:52;99073.81;;;27.29;35.39
57574;BME280;68988;49.000;21.242;2023-07-09T02:59:17;99075.97;;;27.27;35.80
57574;BME280;68988;49.000;21.242;2023-07-09T03:01:43;99071.66;;;27.26;35.80
57574;BME280;68988;49.000;21.242;2023-07-09T03:04:08;99077.09;;;27.21;35.59
57574;BME280;68988;49.000;21.242;2023-07-09T03:06:35;99079.22;;;27.24;35.53
57574;BME280;68988;49.000;21.242;2023-07-09T03:09:01;99072.22;;;27.23;35.58
57574;BME280;68988;49.000;21.242;2023-07-09T03:11:29;99078.72;;;27.22;35.55
57574;BME280;68988;49.000;21.242;2023-07-09T03:13:56;99077.34;;;27.25;35.37
57574;BME280;68988;49.000;21.242;2023-07-09T03:16:21;99085.16;;;27.31;35.62
57574;BME280;68988;49.000;21.242;2023-07-09T03:18:46;99076.50;;;27.35;35.59
57574;BME280;68988;49.000;21.242;2023-07-09T03:21:12;99075.41;;;27.41;35.13
57574;BME280;68988;49.000;21.242;2023-07-09T03:23:37;99078.38;;;27.39;35.22
57574;BME280;68988;49.000;21.242;2023-07-09T03:26:03;99077.53;;;27.44;34.96
57574;BME280;68988;49.000;21.242;2023-07-09T03:28:31;99078.53;;;27.53;35.36
57574;BME280;68988;49.000;21.242;2023-07-09T03:30:57;99084.78;;;27.48;34.98
57574;BME280;68988;49.000;21.242;2023-07-09T03:33:23;99075.88;;;27.48;35.00
57574;BME280;68988;49.000;21.242;2023-07-09T03:35:48;99080.41;;;27.52;34.86
57574;BME280;68988;49.000;21.242;2023-07-09T03:38:14;99076.88;;;27.57;35.01
57574;BME280;68988;49.000;21.242;2023-07-09T03:40:39;99079.00;;;27.60;34.82
57574;BME280;68988;49.000;21.242;2023-07-09T03:43:05;99079.28;;;27.59;34.93
57574;BME280;68988;49.000;21.242;2023-07-09T03:45:32;99077.41;;;27.59;35.09
57574;BME280;68988;49.000;21.242;2023-07-09T03:47:58;99080.06;;;27.64;35.01
57574;BME280;68988;49.000;21.242;2023-07-09T03:50:23;99081.69;;;27.65;34.92
57574;BME280;68988;49.000;21.242;2023-07-09T03:52:49;99089.44;;;27.72;34.73
57574;BME280;68988;49.000;21.242;2023-07-09T03:55:14;99080.00;;;27.75;34.65
57574;BME280;68988;49.000;21.242;2023-07-09T03:57:40;99081.59;;;27.76;34.60
57574;BME280;68988;49.000;21.242;2023-07-09T04:00:06;99081.06;;;27.74;34.88
57574;BME280;68988;49.000;21.242;2023-07-09T04:02:35;99085.06;;;27.81;34.62
57574;BME280;68988;49.000;21.242;2023-07-09T04:05:01;99082.94;;;27.78;34.39
57574;BME280;68988;49.000;21.242;2023-07-09T04:07:26;99072.91;;;27.84;34.21
57574;BME280;68988;49.000;21.242;2023-07-09T04:09:51;99077.19;;;27.85;34.67
57574;BME280;68988;49.000;21.242;2023-07-09T04:12:17;99078.53;;;27.87;34.22
57574;BME280;68988;49.000;21.242;2023-07-09T04:14:42;99071.78;;;27.90;34.59
57574;BME280;68988;49.000;21.242;2023-07-09T04:17:08;99083.66;;;27.89;34.49
57574;BME280;68988;49.000;21.242;2023-07-09T04:19:33;99084.41;;;27.95;34.32
57574;BME280;68988;49.000;21.242;2023-07-09T04:21:58;99081.47;;;27.96;34.33
57574;BME280;68988;49.000;21.242;2023-07-09T04:24:24;99090.06;;;27.98;34.37
57574;BME280;68988;49.000;21.242;2023-07-09T04:26:49;99087.88;;;28.00;34.53
57574;BME280;68988;49.000;21.242;2023-07-09T04:29:14;99088.94;;;28.04;34.42
57574;BME280;68988;49.000;21.242;2023-07-09T04:31:40;99097.31;;;28.03;34.26
57574;BME280;68988;49.000;21.242;2023-07-09T04:34:07;99097.53;;;28.07;34.39
57574;BME280;68988;49.000;21.242;2023-07-09T04:36:33;99097.50;;;28.12;34.26
57574;BME280;68988;49.000;21.242;2023-07-09T04:38:59;99096.38;;;28.18;34.28
57574;BME280;68988;49.000;21.242;2023-07-09T04:41:24;99091.81;;;28.13;34.18
57574;BME280;68988;49.000;21.242;2023-07-09T04:43:50;99098.50;;;28.21;34.15
57574;BME280;68988;49.000;21.242;2023-07-09T04:46:15;99098.44;;;28.26;33.70
57574;BME280;68988;49.000;21.242;2023-07-09T04:48:41;99101.13;;;28.26;34.01
57574;BME280;68988;49.000;21.242;2023-07-09T04:51:06;99095.50;;;28.22;34.04
57574;BME280;68988;49.000;21.242;2023-07-09T04:53:31;99098.94;;;28.28;34.00
57574;BME280;68988;49.000;21.242;2023-07-09T04:55:57;99102.19;;;28.30;34.25
57574;BME280;68988;49.000;21.242;2023-07-09T04:58:22;99098.94;;;28.28;33.90
57574;BME280;68988;49.000;21.242;2023-07-09T05:00:48;99101.13;;;28.26;34.18
57574;BME280;68988;49.000;21.242;2023-07-09T05:03:15;99103.72;;;28.36;34.27
57574;BME280;68988;49.000;21.242;2023-07-09T05:05:45;99107.50;;;28.35;34.21
57574;BME280;68988;49.000;21.242;2023-07-09T05:08:14;99109.91;;;28.37;34.09
57574;BME280;68988;49.000;21.242;2023-07-09T05:10:44;99103.66;;;28.42;33.96
57574;BME280;68988;49.000;21.242;2023-07-09T05:13:10;99105.28;;;28.43;33.77
57574;BME280;68988;49.000;21.242;2023-07-09T05:15:35;99100.47;;;28.39;33.84
57574;BME280;68988;49.000;21.242;2023-07-09T05:18:00;99103.16;;;28.39;33.89
57574;BME280;68988;49.000;21.242;2023-07-09T05:20:26;99110.13;;;28.46;33.65
57574;BME280;68988;49.000;21.242;2023-07-09T05:22:51;99101.16;;;28.50;33.91
57574;BME280;68988;49.000;21.242;2023-07-09T05:25:17;99090.09;;;28.52;33.77
57574;BME280;68988;49.000;21.242;2023-07-09T05:27:42;99088.41;;;28.56;33.83
57574;BME280;68988;49.000;21.242;2023-07-09T05:30:08;99096.19;;;28.57;33.72
57574;BME280;68988;49.000;21.242;2023-07-09T05:32:34;99095.69;;;28.55;33.78
57574;BME280;68988;49.000;21.242;2023-07-09T05:35:00;99091.38;;;28.60;33.59
57574;BME280;68988;49.000;21.242;2023-07-09T05:37:26;99090.31;;;28.55;33.79
57574;BME280;68988;49.000;21.242;2023-07-09T05:39:51;99089.47;;;28.60;33.77
57574;BME280;68988;49.000;21.242;2023-07-09T05:42:16;99094.28;;;28.63;33.54
57574;BME280;68988;49.000;21.242;2023-07-09T05:44:42;99089.66;;;28.69;33.54
57574;BME280;68988;49.000;21.242;2023-07-09T05:47:07;99096.41;;;28.66;33.67
57574;BME280;68988;49.000;21.242;2023-07-09T05:49:33;99094.75;;;28.70;33.34
57574;BME280;68988;49.000;21.242;2023-07-09T05:51:58;99099.03;;;28.71;33.54
57574;BME280;68988;49.000;21.242;2023-07-09T05:54:23;99093.59;;;28.77;33.58
57574;BME280;68988;49.000;21.242;2023-07-09T05:56:49;99099.00;;;28.77;33.50
57574;BME280;68988;49.000;21.242;2023-07-09T05:59:14;99089.78;;;28.78;33.41
57574;BME280;68988;49.000;21.242;2023-07-09T06:01:39;99089.88;;;28.72;33.78
57574;BME280;68988;49.000;21.242;2023-07-09T06:04:05;99091.41;;;28.79;33.52
57574;BME280;68988;49.000;21.242;2023-07-09T06:06:31;99098.44;;;28.80;33.42
57574;BME280;68988;49.000;21.242;2023-07-09T06:08:57;99087.63;;;28.80;33.59
57574;BME280;68988;49.000;21.242;2023-07-09T06:11:22;99090.53;;;28.83;33.56
57574;BME280;68988;49.000;21.242;2023-07-09T06:13:48;99088.94;;;28.82;33.68
57574;BME280;68988;49.000;21.242;2023-07-09T06:16:14;99088.34;;;28.85;33.58
57574;BME280;68988;49.000;21.242;2023-07-09T06:18:39;99088.06;;;28.87;33.56
57574;BME280;68988;49.000;21.242;2023-07-09T06:21:06;99085.06;;;28.88;33.50
57574;BME280;68988;49.000;21.242;2023-07-09T06:23:32;99091.81;;;28.91;33.49
57574;BME280;68988;49.000;21.242;2023-07-09T06:25:58;99085.91;;;28.89;33.79
57574;BME280;68988;49.000;21.242;2023-07-09T06:28:26;99077.22;;;28.92;33.53
57574;BME280;68988;49.000;21.242;2023-07-09T06:30:54;99082.31;;;28.93;33.63
57574;BME280;68988;49.000;21.242;2023-07-09T06:33:19;99079.75;;;29.02;33.49
57574;BME280;68988;49.000;21.242;2023-07-09T06:35:53;99080.88;;;29.01;33.46
57574;BME280;68988;49.000;21.242;2023-07-09T06:38:19;99077.13;;;28.97;33.64
57574;BME280;68988;49.000;21.242;2023-07-09T06:40:45;99069.91;;;28.92;33.67
57574;BME280;68988;49.000;21.242;2023-07-09T06:43:11;99060.16;;;28.97;33.57
57574;BME280;68988;49.000;21.242;2023-07-09T06:45:36;99060.16;;;28.97;33.45
57574;BME280;68988;49.000;21.242;2023-07-09T06:48:02;99053.34;;;28.99;33.77
57574;BME280;68988;49.000;21.242;2023-07-09T06:50:28;99057.94;;;28.99;33.76
57574;BME280;68988;49.000;21.242;2023-07-09T06:52:54;99060.06;;;29.02;33.69
57574;BME280;68988;49.000;21.242;2023-07-09T06:55:19;99060.88;;;29.02;33.55
57574;BME280;68988;49.000;21.242;2023-07-09T06:57:45;99063.06;;;29.00;33.53
57574;BME280;68988;49.000;21.242;2023-07-09T07:00:11;99054.97;;;29.00;33.59
57574;BME280;68988;49.000;21.242;2023-07-09T07:02:36;99054.38;;;29.03;33.88
57574;BME280;68988;49.000;21.242;2023-07-09T07:05:02;99053.22;;;29.09;33.66
57574;BME280;68988;49.000;21.242;2023-07-09T07:07:27;99053.22;;;29.09;34.11
57574;BME280;68988;49.000;21.242;2023-07-09T07:09:53;99055.41;;;29.07;33.77
57574;BME280;68988;49.000;21.242;2023-07-09T07:12:27;99058.03;;;29.13;33.75
57574;BME280;68988;49.000;21.242;2023-07-09T07:14:54;99045.69;;;29.06;33.94
57574;BME280;68988;49.000;21.242;2023-07-09T07:17:20;99041.84;;;29.13;33.95
57574;BME280;68988;49.000;21.242;2023-07-09T07:19:45;99044.25;;;29.14;33.73
57574;BME280;68988;49.000;21.242;2023-07-09T07:22:11;99045.63;;;29.11;33.82
57574;BME280;68988;49.000;21.242;2023-07-09T07:24:36;99042.41;;;29.09;33.88
57574;BME280;68988;49.000;21.242;2023-07-09T07:27:01;99035.69;;;29.07;34.01
57574;BME280;68988;49.000;21.242;2023-07-09T07:29:27;99038.91;;;29.09;34.07
57574;BME280;68988;49.000;21.242;2023-07-09T07:31:53;99039.72;;;29.09;34.05
57574;BME280;68988;49.000;21.242;2023-07-09T07:34:19;99039.13;;;29.13;33.89
57574;BME280;68988;49.000;21.242;2023-07-09T07:36:44;99039.94;;;29.13;33.93
57574;BME280;68988;49.000;21.242;2023-07-09T07:39:10;99037.81;;;29.10;34.09
57574;BME280;68988;49.000;21.242;2023-07-09T07:41:35;99038.84;;;29.14;34.05
57574;BME280;68988;49.000;21.242;2023-07-09T07:44:01;99029.34;;;29.17;33.99
57574;BME280;68988;49.000;21.242;2023-07-09T07:46:26;99033.22;;;29.10;34.14
57574;BME280;68988;49.000;21.242;2023-07-09T07:48:51;99032.66;;;29.14;34.07
57574;BME280;68988;49.000;21.242;2023-07-09T07:51:17;99027.00;;;29.10;34.14
57574;BME280;68988;49.000;21.242;2023-07-09T07:53:42;99033.22;;;29.10;34.18
57574;BME280;68988;49.000;21.242;2023-07-09T07:56:08;99027.84;;;29.10;34.17
57574;BME280;68988;49.000;21.242;2023-07-09T07:58:33;99028.63;;;29.11;34.12
57574;BME280;68988;49.000;21.242;2023-07-09T08:00:59;99032.66;;;29.14;34.18
57574;BME280;68988;49.000;21.242;2023-07-09T08:03:25;99029.41;;;29.11;33.96
57574;BME280;68988;49.000;21.242;2023-07-09T08:05:51;99030.25;;;29.12;34.16
57574;BME280;68988;49.000;21.242;2023-07-09T08:08:17;99028.34;;;29.13;34.05
57574;BME280;68988;49.000;21.242;2023-07-09T08:10:42;99026.94;;;29.15;34.23
57574;BME280;68988;49.000;21.242;2023-07-09T08:13:08;99035.84;;;29.16;34.06
57574;BME280;68988;49.000;21.242;2023-07-09T08:15:34;99027.25;;;29.14;34.16
57574;BME280;68988;49.000;21.242;2023-07-09T08:17:59;99028.84;;;29.15;34.24
57574;BME280;68988;49.000;21.242;2023-07-09T08:20:25;99023.50;;;29.09;34.13
57574;BME280;68988;49.000;21.242;2023-07-09T08:22:50;99016.94;;;29.16;34.05
57574;BME280;68988;49.000;21.242;2023-07-09T08:25:15;99020.22;;;29.13;34.36
57574;BME280;68988;49.000;21.242;2023-07-09T08:27:41;99024.53;;;29.14;34.19
57574;BME280;68988;49.000;21.242;2023-07-09T08:30:07;99026.22;;;29.09;34.55
57574;BME280;68988;49.000;21.242;2023-07-09T08:32:32;99024.09;;;29.06;34.36
57574;BME280;68988;49.000;21.242;2023-07-09T08:34:58;99022.94;;;29.13;34.14
57574;BME280;68988;49.000;21.242;2023-07-09T08:37:23;99017.63;;;29.07;34.19
57574;BME280;68988;49.000;21.242;2023-07-09T08:39:49;99016.50;;;29.08;34.37
57574;BME280;68988;49.000;21.242;2023-07-09T08:42:29;99017.03;;;29.10;34.38
57574;BME280;68988;49.000;21.242;2023-07-09T08:45:26;99016.44;;;29.14;34.26
57574;BME280;68988;49.000;21.242;2023-07-09T08:48:01;99019.44;;;29.12;34.23
57574;BME280;68988;49.000;21.242;2023-07-09T08:50:36;99010.47;;;29.17;34.16
57574;BME280;68988;49.000;21.242;2023-07-09T08:53:03;99006.81;;;29.07;34.33
57574;BME280;68988;49.000;21.242;2023-07-09T08:55:31;99006.53;;;29.09;34.30
57574;BME280;68988;49.000;21.242;2023-07-09T08:58:11;99007.22;;;29.15;34.24
57574;BME280;68988;49.000;21.242;2023-07-09T09:00:59;99011.84;;;29.14;34.15
57574;BME280;68988;49.000;21.242;2023-07-09T09:03:31;99011.84;;;29.14;34.06
57574;BME280;68988;49.000;21.242;2023-07-09T09:06:01;98999.81;;;29.06;34.25
57574;BME280;68988;49.000;21.242;2023-07-09T09:08:40;99001.91;;;29.09;34.17
57574;BME280;68988;49.000;21.242;2023-07-09T09:13:32;99009.81;;;29.06;33.90
57574;BME280;68988;49.000;21.242;2023-07-09T09:16:02;99003.00;;;29.08;33.67
57574;BME280;68988;49.000;21.242;2023-07-09T09:18:41;99004.41;;;29.06;33.69
57574;BME280;68988;49.000;21.242;2023-07-09T09:21:16;98998.41;;;29.09;33.57
57574;BME280;68988;49.000;21.242;2023-07-09T09:24:12;98998.72;;;29.07;33.55
57574;BME280;68988;49.000;21.242;2023-07-09T09:26:41;98991.25;;;28.99;33.58
57574;BME280;68988;49.000;21.242;2023-07-09T09:29:15;98994.25;;;28.98;33.48
57574;BME280;68988;49.000;21.242;2023-07-09T09:31:43;98981.88;;;28.97;33.27
57574;BME280;68988;49.000;21.242;2023-07-09T09:34:21;98986.09;;;29.03;33.16
57574;BME280;68988;49.000;21.242;2023-07-09T09:36:47;98987.56;;;28.95;33.39
57574;BME280;68988;49.000;21.242;2023-07-09T09:39:13;98988.19;;;28.87;33.16
57574;BME280;68988;49.000;21.242;2023-07-09T09:41:39;98979.75;;;28.93;32.82
57574;BME280;68988;49.000;21.242;2023-07-09T09:44:05;98978.94;;;28.93;33.01
57574;BME280;68988;49.000;21.242;2023-07-09T09:46:32;98978.63;;;28.94;32.98
57574;BME280;68988;49.000;21.242;2023-07-09T09:49:01;98983.81;;;28.91;32.84
57574;BME280;68988;49.000;21.242;2023-07-09T09:51:27;98979.00;;;28.88;32.77
57574;BME280;68988;49.000;21.242;2023-07-09T09:53:57;98988.94;;;28.92;32.71
57574;BME280;68988;49.000;21.242;2023-07-09T09:56:30;98989.72;;;28.93;32.65
57574;BME280;68988;49.000;21.242;2023-07-09T09:58:59;98984.13;;;28.89;32.61
57574;BME280;68988;49.000;21.242;2023-07-09T10:01:32;98988.34;;;28.96;32.89
57574;BME280;68988;49.000;21.242;2023-07-09T10:04:01;98976.00;;;28.89;32.71
57574;BME280;68988;49.000;21.242;2023-07-09T10:06:39;98982.94;;;28.96;32.65
57574;BME280;68988;49.000;21.242;2023-07-09T10:14:43;98974.94;;;28.90;32.57
57574;BME280;68988;49.000;21.242;2023-07-09T10:19:56;98973.81;;;28.91;32.60
57574;BME280;68988;49.000;21.242;2023-07-09T10:22:36;98974.09;;;28.90;32.47
57574;BME280;68988;49.000;21.242;2023-07-09T10:25:26;98969.53;;;28.90;32.53
57574;BME280;68988;49.000;21.242;2023-07-09T10:33:18;98966.53;;;28.92;32.30
57574;BME280;68988;49.000;21.242;2023-07-09T10:36:06;98962.97;;;28.97;32.20
57574;BME280;68988;49.000;21.242;2023-07-09T10:38:55;98960.63;;;28.90;32.05
57574;BME280;68988;49.000;21.242;2023-07-09T10:41:23;98959.03;;;28.89;32.01
57574;BME280;68988;49.000;21.242;2023-07-09T10:44:01;98957.41;;;28.88;32.29
57574;BME280;68988;49.000;21.242;2023-07-09T10:46:35;98961.78;;;28.84;32.12
57574;BME280;68988;49.000;21.242;2023-07-09T10:49:03;98953.69;;;28.84;32.24
57574;BME280;68988;49.000;21.242;2023-07-09T10:54:16;98952.47;;;28.95;31.79
57574;BME280;68988;49.000;21.242;2023-07-09T10:56:47;98950.41;;;28.87;31.84
57574;BME280;68988;49.000;21.242;2023-07-09T10:59:21;98953.34;;;28.90;32.05
57574;BME280;68988;49.000;21.242;2023-07-09T11:01:50;98950.09;;;28.88;31.81
57574;BME280;68988;49.000;21.242;2023-07-09T11:04:40;98948.22;;;28.89;31.95
57574;BME280;68988;49.000;21.242;2023-07-09T11:07:12;98949.75;;;28.95;31.75
57574;BME280;68988;49.000;21.242;2023-07-09T11:09:42;98950.94;;;28.89;31.63
57574;BME280;68988;49.000;21.242;2023-07-09T11:12:13;98942.53;;;28.90;31.80
57574;BME280;68988;49.000;21.242;2023-07-09T11:17:16;98953.09;;;28.87;31.99
57574;BME280;68988;49.000;21.242;2023-07-09T11:19:44;98948.22;;;28.89;31.80
57574;BME280;68988;49.000;21.242;2023-07-09T11:22:26;98947.94;;;28.90;31.83
57574;BME280;68988;49.000;21.242;2023-07-09T11:27:27;98954.72;;;28.88;32.00
57574;BME280;68988;49.000;21.242;2023-07-09T11:29:59;98944.94;;;28.92;31.59
57574;BME280;68988;49.000;21.242;2023-07-09T11:32:26;98942.16;;;28.97;31.57
57574;BME280;68988;49.000;21.242;2023-07-09T11:34:52;98932.44;;;28.96;31.55
57574;BME280;68988;49.000;21.242;2023-07-09T11:37:17;98933.84;;;28.93;31.45
57574;BME280;68988;49.000;21.242;2023-07-09T11:39:47;98939.56;;;28.92;31.67
57574;BME280;68988;49.000;21.242;2023-07-09T11:42:32;98938.13;;;28.94;31.79
57574;BME280;68988;49.000;21.242;2023-07-09T11:45:09;98936.25;;;28.95;31.80
57574;BME280;68988;49.000;21.242;2023-07-09T11:50:12;98933.56;;;28.95;31.72
57574;BME280;68988;49.000;21.242;2023-07-09T11:52:51;98927.88;;;28.97;31.54
57574;BME280;68988;49.000;21.242;2023-07-09T11:55:27;98920.84;;;28.96;31.63
57574;BME280;68988;49.000;21.242;2023-07-09T11:57:59;98921.16;;;28.94;31.84
57574;BME280;68988;49.000;21.242;2023-07-09T12:01:09;98918.44;;;28.94;31.50
57574;BME280;68988;49.000;21.242;2023-07-09T12:03:18;98915.75;;;28.94;31.76
57574;BME280;68988;49.000;21.242;2023-07-09T12:05:52;98916.78;;;28.98;31.72
57574;BME280;68988;49.000;21.242;2023-07-09T12:08:25;98905.44;;;28.96;31.79
57574;BME280;68988;49.000;21.242;2023-07-09T12:10:52;98910.06;;;28.96;31.71
57574;BME280;68988;49.000;21.242;2023-07-09T12:13:18;98897.59;;;29.00;31.16
57574;BME280;68988;49.000;21.242;2023-07-09T12:15:43;98897.28;;;29.01;31.26
57574;BME280;68988;49.000;21.242;2023-07-09T12:18:14;98900.00;;;29.01;31.14
57574;BME280;68988;49.000;21.242;2023-07-09T12:20:41;98894.66;;;28.96;31.19
57574;BME280;68988;49.000;21.242;2023-07-09T12:23:32;98897.78;;;29.03;31.09
57574;BME280;68988;49.000;21.242;2023-07-09T12:26:02;98899.47;;;28.99;31.01
57574;BME280;68988;49.000;21.242;2023-07-09T12:28:28;98896.56;;;28.96;31.33
57574;BME280;68988;49.000;21.242;2023-07-09T12:30:54;98891.47;;;28.94;31.13
57574;BME280;68988;49.000;21.242;2023-07-09T12:33:21;98891.38;;;28.99;31.10
57574;BME280;68988;49.000;21.242;2023-07-09T12:35:54;98886.78;;;29.00;31.26
57574;BME280;68988;49.000;21.242;2023-07-09T12:38:22;98890.78;;;29.02;31.03
57574;BME280;68988;49.000;21.242;2023-07-09T12:40:49;98885.97;;;28.99;31.17
57574;BME280;68988;49.000;21.242;2023-07-09T12:43:21;98885.19;;;28.99;31.30
57574;BME280;68988;49.000;21.242;2023-07-09T12:45:48;98878.16;;;28.98;31.19
57574;BME280;68988;49.000;21.242;2023-07-09T12:48:14;98876.28;;;28.98;31.20
57574;BME280;68988;49.000;21.242;2023-07-09T12:50:39;98877.81;;;29.04;31.09
57574;BME280;68988;49.000;21.242;2023-07-09T12:53:16;98876.50;;;29.02;31.11
57574;BME280;68988;49.000;21.242;2023-07-09T12:55:44;98880.81;;;29.03;31.16
57574;BME280;68988;49.000;21.242;2023-07-09T12:58:17;98875.75;;;28.96;31.26
57574;BME280;68988;49.000;21.242;2023-07-09T13:00:47;98878.97;;;28.98;31.36
57574;BME280;68988;49.000;21.242;2023-07-09T13:03:16;98877.97;;;28.94;31.43
57574;BME280;68988;49.000;21.242;2023-07-09T13:05:57;98868.97;;;28.99;31.17
57574;BME280;68988;49.000;21.242;2023-07-09T13:08:25;98869.78;;;28.99;31.25
57574;BME280;68988;49.000;21.242;2023-07-09T13:10:51;98862.78;;;28.98;31.19
57574;BME280;68988;49.000;21.242;2023-07-09T13:13:20;98856.56;;;28.98;31.30
57574;BME280;68988;49.000;21.242;2023-07-09T13:15:51;98872.19;;;29.01;31.01
57574;BME280;68988;49.000;21.242;2023-07-09T13:18:21;98865.78;;;28.97;31.42
57574;BME280;68988;49.000;21.242;2023-07-09T13:20:47;98857.09;;;29.00;31.05
57574;BME280;68988;49.000;21.242;2023-07-09T13:23:18;98864.06;;;29.01;31.24
57574;BME280;68988;49.000;21.242;2023-07-09T13:25:44;98854.16;;;28.96;31.06
57574;BME280;68988;49.000;21.242;2023-07-09T13:28:23;98859.50;;;29.01;31.21